sensor_id;sensor_type;location;lat;lon;timestamp;pressure;altitude;pressure_sealevel;temperature;humidity
83037;BME280;73029;43.592;1.458;2024-03-23T00:55:54;100335.13;;;17.40;63.63
83037;BME280;73029;43.592;1.458;2024-03-23T00:58:19;100320.34;;;17.32;63.73
83037;BME280;73029;43.592;1.458;2024-03-23T01:00:45;100328.31;;;17.33;63.76
83037;BME280;73029;43.592;1.458;2024-03-23T01:03:10;100338.31;;;17.28;63.82
83037;BME280;73029;43.592;1.458;2024-03-23T01:05:36;100333.16;;;17.23;64.03
83037;BME280;73029;43.592;1.458;2024-03-23T01:08:01;100340.38;;;17.21;64.02
83037;BME280;73029;43.592;1.458;2024-03-23T01:10:27;100335.97;;;17.20;64.14
83037;BME280;73029;43.592;1.458;2024-03-23T01:12:52;100345.75;;;17.20;64.15
83037;BME280;73029;43.592;1.458;2024-03-23T01:15:18;100356.66;;;17.15;64.21
83037;BME280;73029;43.592;1.458;2024-03-23T01:17:43;100344.25;;;17.14;64.26
83037;BME280;73029;43.592;1.458;2024-03-23T01:20:09;100351.25;;;17.17;64.24
83037;BME280;73029;43.592;1.458;2024-03-23T01:22:34;100354.78;;;17.17;64.10
83037;BME280;73029;43.592;1.458;2024-03-23T01:24:59;100312.19;;;16.92;64.46
83037;BME280;73029;43.592;1.458;2024-03-23T01:27:25;100349.84;;;17.08;64.14
83037;BME280;73029;43.592;1.458;2024-03-23T01:29:50;100354.25;;;17.09;64.57
83037;BME280;73029;43.592;1.458;2024-03-23T01:32:17;100345.28;;;17.10;64.21
83037;BME280;73029;43.592;1.458;2024-03-23T01:34:43;100355.97;;;17.10;64.28
83037;BME280;73029;43.592;1.458;2024-03-23T01:37:09;100346.22;;;17.09;64.18
83037;BME280;73029;43.592;1.458;2024-03-23T01:39:34;100344.66;;;17.04;64.02
83037;BME280;73029;43.592;1.458;2024-03-23T01:41:59;100352.75;;;17.02;64.13
83037;BME280;73029;43.592;1.458;2024-03-23T01:44:25;100351.94;;;17.00;64.18
83037;BME280;73029;43.592;1.458;2024-03-23T01:46:50;100356.31;;;17.01;64.00
83037;BME280;73029;43.592;1.458;2024-03-23T01:49:17;100354.53;;;17.02;64.15
83037;BME280;73029;43.592;1.458;2024-03-23T01:51:42;100365.22;;;17.02;63.90
83037;BME280;73029;43.592;1.458;2024-03-23T01:54:09;100372.34;;;17.01;63.71
83037;BME280;73029;43.592;1.458;2024-03-23T01:56:34;100369.06;;;16.94;63.61
83037;BME280;73029;43.592;1.458;2024-03-23T01:59:04;100366.59;;;16.90;63.50
83037;BME280;73029;43.592;1.458;2024-03-23T02:01:30;100364.97;;;16.86;63.45
83037;BME280;73029;43.592;1.458;2024-03-23T02:03:56;100372.97;;;16.86;63.69
83037;BME280;73029;43.592;1.458;2024-03-23T02:06:22;100369.56;;;16.82;63.13
83037;BME280;73029;43.592;1.458;2024-03-23T02:08:49;100374.00;;;16.83;63.09
83037;BME280;73029;43.592;1.458;2024-03-23T02:11:14;100381.06;;;16.84;62.77
83037;BME280;73029;43.592;1.458;2024-03-23T02:13:40;100384.84;;;16.79;61.73
83037;BME280;73029;43.592;1.458;2024-03-23T02:16:06;100386.00;;;16.72;61.24
83037;BME280;73029;43.592;1.458;2024-03-23T02:18:32;100403.09;;;16.66;60.81
83037;BME280;73029;43.592;1.458;2024-03-23T02:20:58;100381.16;;;16.58;60.47
83037;BME280;73029;43.592;1.458;2024-03-23T02:23:23;100384.97;;;16.51;60.50
83037;BME280;73029;43.592;1.458;2024-03-23T02:25:50;100392.34;;;16.44;60.53
83037;BME280;73029;43.592;1.458;2024-03-23T02:28:15;100402.09;;;16.45;59.98
83037;BME280;73029;43.592;1.458;2024-03-23T02:30:42;100382.03;;;16.35;59.31
83037;BME280;73029;43.592;1.458;2024-03-23T02:33:07;100408.66;;;16.36;58.90
83037;BME280;73029;43.592;1.458;2024-03-23T02:35:33;100405.66;;;16.21;58.98
83037;BME280;73029;43.592;1.458;2024-03-23T02:37:58;100416.41;;;16.19;58.83
83037;BME280;73029;43.592;1.458;2024-03-23T02:40:24;100420.28;;;16.10;58.38
83037;BME280;73029;43.592;1.458;2024-03-23T02:42:50;100421.44;;;16.03;58.66
83037;BME280;73029;43.592;1.458;2024-03-23T02:45:15;100417.19;;;15.98;58.02
83037;BME280;73029;43.592;1.458;2024-03-23T02:47:41;100427.28;;;15.88;58.33
83037;BME280;73029;43.592;1.458;2024-03-23T02:50:07;100427.63;;;15.79;58.21
83037;BME280;73029;43.592;1.458;2024-03-23T02:52:32;100437.66;;;15.71;58.31
83037;BME280;73029;43.592;1.458;2024-03-23T02:54:58;100430.97;;;15.57;58.39
83037;BME280;73029;43.592;1.458;2024-03-23T02:57:23;100434.69;;;15.52;58.56
83037;BME280;73029;43.592;1.458;2024-03-23T02:59:49;100438.34;;;15.49;58.30
83037;BME280;73029;43.592;1.458;2024-03-23T03:02:15;100435.94;;;15.42;57.66
83037;BME280;73029;43.592;1.458;2024-03-23T03:04:40;100448.47;;;15.38;57.55
83037;BME280;73029;43.592;1.458;2024-03-23T03:07:06;100435.34;;;15.32;57.71
83037;BME280;73029;43.592;1.458;2024-03-23T03:09:31;100440.81;;;15.27;57.77
83037;BME280;73029;43.592;1.458;2024-03-23T03:11:58;100429.63;;;15.18;57.83
83037;BME280;73029;43.592;1.458;2024-03-23T03:14:23;100410.94;;;14.91;58.51
83037;BME280;73029;43.592;1.458;2024-03-23T03:16:48;100437.88;;;15.08;58.53
83037;BME280;73029;43.592;1.458;2024-03-23T03:19:14;100434.53;;;15.02;58.26
83037;BME280;73029;43.592;1.458;2024-03-23T03:21:41;100444.59;;;14.92;58.38
83037;BME280;73029;43.592;1.458;2024-03-23T03:24:07;100447.41;;;14.88;58.93
83037;BME280;73029;43.592;1.458;2024-03-23T03:26:32;100452.91;;;14.81;58.97
83037;BME280;73029;43.592;1.458;2024-03-23T03:28:58;100436.31;;;14.73;59.49
83037;BME280;73029;43.592;1.458;2024-03-23T03:31:23;100439.16;;;14.67;59.24
83037;BME280;73029;43.592;1.458;2024-03-23T03:33:50;100436.63;;;14.63;59.64
83037;BME280;73029;43.592;1.458;2024-03-23T03:36:16;100427.84;;;14.59;59.31
83037;BME280;73029;43.592;1.458;2024-03-23T03:38:41;100446.41;;;14.62;59.57
83037;BME280;73029;43.592;1.458;2024-03-23T03:41:07;100430.59;;;14.56;59.92
83037;BME280;73029;43.592;1.458;2024-03-23T03:43:32;100441.13;;;14.61;59.73
83037;BME280;73029;43.592;1.458;2024-03-23T03:46:00;100444.88;;;14.53;59.55
83037;BME280;73029;43.592;1.458;2024-03-23T03:48:26;100449.47;;;14.48;59.62
83037;BME280;73029;43.592;1.458;2024-03-23T03:50:52;100449.66;;;14.39;59.57
83037;BME280;73029;43.592;1.458;2024-03-23T03:53:18;100457.69;;;14.38;59.91
83037;BME280;73029;43.592;1.458;2024-03-23T03:55:44;100469.22;;;14.38;59.84
83037;BME280;73029;43.592;1.458;2024-03-23T03:58:09;100460.38;;;14.38;60.22
83037;BME280;73029;43.592;1.458;2024-03-23T04:00:34;100470.25;;;14.33;59.68
83037;BME280;73029;43.592;1.458;2024-03-23T04:03:00;100468.72;;;14.24;60.08
83037;BME280;73029;43.592;1.458;2024-03-23T04:05:26;100462.72;;;14.16;60.32
83037;BME280;73029;43.592;1.458;2024-03-23T04:07:51;100492.13;;;14.11;60.56
83037;BME280;73029;43.592;1.458;2024-03-23T04:10:17;100493.06;;;14.09;60.23
83037;BME280;73029;43.592;1.458;2024-03-23T04:12:43;100501.94;;;14.08;60.55
83037;BME280;73029;43.592;1.458;2024-03-23T04:15:09;100509.16;;;14.02;60.62
83037;BME280;73029;43.592;1.458;2024-03-23T04:17:35;100508.53;;;13.93;60.73
83037;BME280;73029;43.592;1.458;2024-03-23T04:20:02;100512.94;;;13.94;61.51
83037;BME280;73029;43.592;1.458;2024-03-23T04:22:29;100512.19;;;13.89;61.40
83037;BME280;73029;43.592;1.458;2024-03-23T04:24:55;100527.25;;;13.88;61.80
83037;BME280;73029;43.592;1.458;2024-03-23T04:27:21;100514.00;;;13.87;61.59
83037;BME280;73029;43.592;1.458;2024-03-23T04:29:50;100530.00;;;13.84;61.18
83037;BME280;73029;43.592;1.458;2024-03-23T04:32:16;100538.00;;;13.84;61.13
83037;BME280;73029;43.592;1.458;2024-03-23T04:34:43;100538.94;;;13.81;61.07
83037;BME280;73029;43.592;1.458;2024-03-23T04:37:09;100542.47;;;13.82;60.55
83037;BME280;73029;43.592;1.458;2024-03-23T04:39:36;100544.31;;;13.78;60.22
83037;BME280;73029;43.592;1.458;2024-03-23T04:42:02;100543.59;;;13.73;60.39
83037;BME280;73029;43.592;1.458;2024-03-23T04:44:28;100545.38;;;13.71;60.12
83037;BME280;73029;43.592;1.458;2024-03-23T04:46:53;100554.28;;;13.70;59.62
83037;BME280;73029;43.592;1.458;2024-03-23T04:49:19;100526.44;;;13.49;60.18
83037;BME280;73029;43.592;1.458;2024-03-23T04:51:44;100543.88;;;13.61;59.93
83037;BME280;73029;43.592;1.458;2024-03-23T04:54:14;100542.91;;;13.63;59.68
83037;BME280;73029;43.592;1.458;2024-03-23T04:56:40;100538.47;;;13.64;59.54
83037;BME280;73029;43.592;1.458;2024-03-23T04:59:05;100535.88;;;13.62;59.56
83037;BME280;73029;43.592;1.458;2024-03-23T05:01:34;100537.59;;;13.63;59.46
83037;BME280;73029;43.592;1.458;2024-03-23T05:03:59;100543.78;;;13.64;59.47
83037;BME280;73029;43.592;1.458;2024-03-23T05:06:25;100543.78;;;13.64;59.43
83037;BME280;73029;43.592;1.458;2024-03-23T05:08:51;100545.47;;;13.68;58.97
83037;BME280;73029;43.592;1.458;2024-03-23T05:11:17;100545.47;;;13.68;58.98
83037;BME280;73029;43.592;1.458;2024-03-23T05:13:43;100546.34;;;13.68;58.96
83037;BME280;73029;43.592;1.458;2024-03-23T05:16:09;100553.44;;;13.68;59.54
83037;BME280;73029;43.592;1.458;2024-03-23T05:18:35;100541.94;;;13.67;59.25
83037;BME280;73029;43.592;1.458;2024-03-23T05:21:00;100519.19;;;13.56;59.43
83037;BME280;73029;43.592;1.458;2024-03-23T05:23:26;100557.75;;;13.73;59.46
83037;BME280;73029;43.592;1.458;2024-03-23T05:25:52;100551.63;;;13.70;59.56
83037;BME280;73029;43.592;1.458;2024-03-23T05:28:18;100568.38;;;13.72;59.88
83037;BME280;73029;43.592;1.458;2024-03-23T05:30:44;100562.25;;;13.70;60.20
83037;BME280;73029;43.592;1.458;2024-03-23T05:33:09;100567.50;;;13.73;60.27
83037;BME280;73029;43.592;1.458;2024-03-23T05:35:34;100573.75;;;13.70;60.39
83037;BME280;73029;43.592;1.458;2024-03-23T05:38:00;100576.28;;;13.75;60.38
83037;BME280;73029;43.592;1.458;2024-03-23T05:40:26;100575.38;;;13.76;60.35
83037;BME280;73029;43.592;1.458;2024-03-23T05:42:51;100566.59;;;13.74;60.16
83037;BME280;73029;43.592;1.458;2024-03-23T05:45:21;100580.63;;;13.79;60.28
83037;BME280;73029;43.592;1.458;2024-03-23T05:47:48;100587.72;;;13.79;60.47
83037;BME280;73029;43.592;1.458;2024-03-23T05:50:13;100583.34;;;13.76;60.73
83037;BME280;73029;43.592;1.458;2024-03-23T05:52:39;100582.59;;;13.71;61.30
83037;BME280;73029;43.592;1.458;2024-03-23T05:55:05;100591.31;;;13.76;61.29
83037;BME280;73029;43.592;1.458;2024-03-23T05:57:31;100597.50;;;13.77;61.79
83037;BME280;73029;43.592;1.458;2024-03-23T05:59:56;100594.91;;;13.75;61.71
83037;BME280;73029;43.592;1.458;2024-03-23T06:02:22;100582.59;;;13.71;61.72
83037;BME280;73029;43.592;1.458;2024-03-23T06:04:48;100589.63;;;13.72;62.05
83037;BME280;73029;43.592;1.458;2024-03-23T06:07:13;100579.00;;;13.72;61.75
83037;BME280;73029;43.592;1.458;2024-03-23T06:09:40;100586.97;;;13.72;61.85
83037;BME280;73029;43.592;1.458;2024-03-23T06:12:06;100603.84;;;13.71;62.15
83037;BME280;73029;43.592;1.458;2024-03-23T06:14:32;100599.34;;;13.74;61.96
83037;BME280;73029;43.592;1.458;2024-03-23T06:16:58;100609.00;;;13.77;61.89
83037;BME280;73029;43.592;1.458;2024-03-23T06:19:24;100611.63;;;13.80;61.92
83037;BME280;73029;43.592;1.458;2024-03-23T06:21:52;100619.53;;;13.82;62.45
83037;BME280;73029;43.592;1.458;2024-03-23T06:24:17;100611.63;;;13.79;62.61
83037;BME280;73029;43.592;1.458;2024-03-23T06:26:43;100620.50;;;13.79;62.88
83037;BME280;73029;43.592;1.458;2024-03-23T06:29:08;100624.91;;;13.79;63.32
83037;BME280;73029;43.592;1.458;2024-03-23T06:31:34;100622.34;;;13.76;63.71
83037;BME280;73029;43.592;1.458;2024-03-23T06:33:59;100624.09;;;13.77;63.88
83037;BME280;73029;43.592;1.458;2024-03-23T06:36:27;100627.69;;;13.74;64.32
83037;BME280;73029;43.592;1.458;2024-03-23T06:38:52;100627.69;;;13.74;64.44
83037;BME280;73029;43.592;1.458;2024-03-23T06:41:19;100634.84;;;13.70;65.12
83037;BME280;73029;43.592;1.458;2024-03-23T06:43:44;100637.69;;;13.63;65.66
83037;BME280;73029;43.592;1.458;2024-03-23T06:46:10;100639.38;;;13.67;66.19
83037;BME280;73029;43.592;1.458;2024-03-23T06:48:35;100639.44;;;13.64;66.16
83037;BME280;73029;43.592;1.458;2024-03-23T06:51:01;100655.53;;;13.56;67.39
83037;BME280;73029;43.592;1.458;2024-03-23T06:53:26;100647.63;;;13.53;67.75
83037;BME280;73029;43.592;1.458;2024-03-23T06:55:53;100643.25;;;13.51;67.93
83037;BME280;73029;43.592;1.458;2024-03-23T06:58:23;100648.56;;;13.51;68.31
83037;BME280;73029;43.592;1.458;2024-03-23T07:00:49;100650.28;;;13.55;68.02
83037;BME280;73029;43.592;1.458;2024-03-23T07:03:16;100661.72;;;13.57;68.38
83037;BME280;73029;43.592;1.458;2024-03-23T07:05:41;100654.63;;;13.57;68.37
83037;BME280;73029;43.592;1.458;2024-03-23T07:08:07;100654.66;;;13.56;69.04
83037;BME280;73029;43.592;1.458;2024-03-23T07:10:33;100652.94;;;13.53;68.85
83037;BME280;73029;43.592;1.458;2024-03-23T07:12:58;100658.28;;;13.52;68.98
83037;BME280;73029;43.592;1.458;2024-03-23T07:15:24;100661.84;;;13.51;69.63
83037;BME280;73029;43.592;1.458;2024-03-23T07:17:49;100662.69;;;13.54;70.03
83037;BME280;73029;43.592;1.458;2024-03-23T07:20:15;100668.88;;;13.53;69.82
83037;BME280;73029;43.592;1.458;2024-03-23T07:22:41;100672.47;;;13.51;70.65
83037;BME280;73029;43.592;1.458;2024-03-23T07:25:06;100685.81;;;13.47;70.93
83037;BME280;73029;43.592;1.458;2024-03-23T07:27:32;100678.88;;;13.40;71.07
83037;BME280;73029;43.592;1.458;2024-03-23T07:29:58;100691.56;;;13.26;69.39
83037;BME280;73029;43.592;1.458;2024-03-23T07:32:24;100696.25;;;13.10;68.99
83037;BME280;73029;43.592;1.458;2024-03-23T07:34:52;100695.56;;;13.01;69.23
83037;BME280;73029;43.592;1.458;2024-03-23T07:37:17;100713.34;;;12.96;69.00
83037;BME280;73029;43.592;1.458;2024-03-23T07:39:42;100701.22;;;12.82;69.20
83037;BME280;73029;43.592;1.458;2024-03-23T07:42:08;100713.75;;;12.73;69.65
83037;BME280;73029;43.592;1.458;2024-03-23T07:44:33;100713.19;;;12.55;70.37
83037;BME280;73029;43.592;1.458;2024-03-23T07:47:00;100716.81;;;12.48;71.01
83037;BME280;73029;43.592;1.458;2024-03-23T07:49:26;100709.00;;;12.39;71.55
83037;BME280;73029;43.592;1.458;2024-03-23T07:51:51;100681.84;;;12.23;71.97
83037;BME280;73029;43.592;1.458;2024-03-23T07:54:17;100708.25;;;12.29;71.16
83037;BME280;73029;43.592;1.458;2024-03-23T07:56:42;100719.78;;;12.28;71.13
83037;BME280;73029;43.592;1.458;2024-03-23T07:59:07;100731.38;;;12.21;70.22
83037;BME280;73029;43.592;1.458;2024-03-23T08:01:33;100727.91;;;12.18;71.08
83037;BME280;73029;43.592;1.458;2024-03-23T08:03:59;100742.91;;;12.19;71.38
83037;BME280;73029;43.592;1.458;2024-03-23T08:06:24;100728.88;;;12.12;71.28
83037;BME280;73029;43.592;1.458;2024-03-23T08:08:54;100750.97;;;12.09;71.08
83037;BME280;73029;43.592;1.458;2024-03-23T08:11:31;100724.69;;;11.94;71.21
83037;BME280;73029;43.592;1.458;2024-03-23T08:13:57;100764.31;;;12.05;71.80
83037;BME280;73029;43.592;1.458;2024-03-23T08:16:23;100748.56;;;11.93;71.75
83037;BME280;73029;43.592;1.458;2024-03-23T08:18:52;100751.16;;;11.96;71.82
83037;BME280;73029;43.592;1.458;2024-03-23T08:21:18;100777.50;;;12.08;71.40
83037;BME280;73029;43.592;1.458;2024-03-23T08:23:43;100778.50;;;11.99;70.43
83037;BME280;73029;43.592;1.458;2024-03-23T08:26:11;100789.19;;;11.92;70.80
83037;BME280;73029;43.592;1.458;2024-03-23T08:28:37;100784.84;;;11.88;69.86
83037;BME280;73029;43.592;1.458;2024-03-23T08:31:10;100794.59;;;11.84;70.23
83037;BME280;73029;43.592;1.458;2024-03-23T08:33:37;100794.59;;;11.79;69.94
83037;BME280;73029;43.592;1.458;2024-03-23T08:36:07;100800.81;;;11.77;70.66
83037;BME280;73029;43.592;1.458;2024-03-23T08:38:34;100807.88;;;11.78;70.34
83037;BME280;73029;43.592;1.458;2024-03-23T08:41:07;100781.56;;;11.64;70.96
83037;BME280;73029;43.592;1.458;2024-03-23T08:43:35;100812.25;;;11.83;70.47
83037;BME280;73029;43.592;1.458;2024-03-23T08:46:08;100817.59;;;11.82;70.25
83037;BME280;73029;43.592;1.458;2024-03-23T08:48:36;100821.09;;;11.79;70.77
83037;BME280;73029;43.592;1.458;2024-03-23T08:51:03;100820.19;;;11.83;71.06
83037;BME280;73029;43.592;1.458;2024-03-23T08:53:29;100814.16;;;11.69;70.74
83037;BME280;73029;43.592;1.458;2024-03-23T08:55:56;100818.56;;;11.67;71.18
83037;BME280;73029;43.592;1.458;2024-03-23T08:58:23;100822.19;;;11.60;69.42
83037;BME280;73029;43.592;1.458;2024-03-23T09:00:49;100821.34;;;11.55;68.86
83037;BME280;73029;43.592;1.458;2024-03-23T09:03:15;100824.97;;;11.48;67.73
83037;BME280;73029;43.592;1.458;2024-03-23T09:05:40;100824.22;;;11.38;65.95
83037;BME280;73029;43.592;1.458;2024-03-23T09:08:06;100825.09;;;11.36;63.13
83037;BME280;73029;43.592;1.458;2024-03-23T09:13:02;100825.09;;;11.39;63.01
83037;BME280;73029;43.592;1.458;2024-03-23T09:15:27;100830.31;;;11.42;62.91
83037;BME280;73029;43.592;1.458;2024-03-23T09:17:54;100816.19;;;11.46;60.54
83037;BME280;73029;43.592;1.458;2024-03-23T09:20:19;100812.69;;;11.44;60.19
83037;BME280;73029;43.592;1.458;2024-03-23T09:22:44;100815.25;;;11.51;60.28
83037;BME280;73029;43.592;1.458;2024-03-23T09:25:10;100834.59;;;11.55;58.81
83037;BME280;73029;43.592;1.458;2024-03-23T09:27:35;100823.06;;;11.64;58.90
83037;BME280;73029;43.592;1.458;2024-03-23T09:30:00;100824.72;;;11.72;58.50
83037;BME280;73029;43.592;1.458;2024-03-23T09:32:26;100829.06;;;11.78;58.17
83037;BME280;73029;43.592;1.458;2024-03-23T09:34:51;100831.66;;;11.85;57.32
83037;BME280;73029;43.592;1.458;2024-03-23T09:37:16;100839.53;;;11.92;58.08
83037;BME280;73029;43.592;1.458;2024-03-23T09:39:42;100833.22;;;12.02;57.68
83037;BME280;73029;43.592;1.458;2024-03-23T09:42:07;100833.16;;;12.08;56.74
83037;BME280;73029;43.592;1.458;2024-03-23T09:44:33;100821.63;;;12.12;55.29
83037;BME280;73029;43.592;1.458;2024-03-23T09:46:58;100839.22;;;12.18;55.31
83037;BME280;73029;43.592;1.458;2024-03-23T09:49:24;100829.44;;;12.21;54.93
83037;BME280;73029;43.592;1.458;2024-03-23T09:51:50;100829.50;;;12.18;53.58
83037;BME280;73029;43.592;1.458;2024-03-23T09:54:16;100828.53;;;12.24;53.60
83037;BME280;73029;43.592;1.458;2024-03-23T09:56:42;100819.56;;;12.34;53.99
83037;BME280;73029;43.592;1.458;2024-03-23T09:59:07;100821.25;;;12.39;52.56
83037;BME280;73029;43.592;1.458;2024-03-23T10:01:32;100819.38;;;12.46;52.85
83037;BME280;73029;43.592;1.458;2024-03-23T10:03:58;100822.75;;;12.57;53.70
83037;BME280;73029;43.592;1.458;2024-03-23T10:06:24;100812.88;;;12.69;52.97
83037;BME280;73029;43.592;1.458;2024-03-23T10:08:53;100812.59;;;12.84;53.22
83037;BME280;73029;43.592;1.458;2024-03-23T10:11:20;100816.03;;;12.90;52.69
83037;BME280;73029;43.592;1.458;2024-03-23T10:13:46;100816.72;;;13.03;52.13
83037;BME280;73029;43.592;1.458;2024-03-23T10:16:20;100807.72;;;13.12;52.15
83037;BME280;73029;43.592;1.458;2024-03-23T10:18:46;100790.81;;;13.17;51.94
83037;BME280;73029;43.592;1.458;2024-03-23T10:21:13;100794.28;;;13.23;49.62
83037;BME280;73029;43.592;1.458;2024-03-23T10:23:40;100802.97;;;13.32;50.00
83037;BME280;73029;43.592;1.458;2024-03-23T10:26:20;100805.56;;;13.37;49.18
83037;BME280;73029;43.592;1.458;2024-03-23T10:31:25;100802.66;;;13.47;49.15
83037;BME280;73029;43.592;1.458;2024-03-23T10:33:50;100791.88;;;13.57;48.32
83037;BME280;73029;43.592;1.458;2024-03-23T10:36:19;100772.38;;;13.58;48.75
83037;BME280;73029;43.592;1.458;2024-03-23T10:38:46;100787.28;;;13.66;48.67
83037;BME280;73029;43.592;1.458;2024-03-23T10:41:12;100780.06;;;13.73;48.91
83037;BME280;73029;43.592;1.458;2024-03-23T10:43:38;100786.84;;;13.88;48.25
83037;BME280;73029;43.592;1.458;2024-03-23T10:46:04;100780.38;;;13.99;48.59
83037;BME280;73029;43.592;1.458;2024-03-23T10:48:31;100787.28;;;14.08;47.26
83037;BME280;73029;43.592;1.458;2024-03-23T10:50:56;100794.38;;;14.08;46.78
83037;BME280;73029;43.592;1.458;2024-03-23T10:53:25;100784.56;;;14.11;46.69
83037;BME280;73029;43.592;1.458;2024-03-23T10:55:52;100775.69;;;14.12;46.06
83037;BME280;73029;43.592;1.458;2024-03-23T10:58:42;100769.34;;;14.18;47.83
83037;BME280;73029;43.592;1.458;2024-03-23T11:01:12;100738.31;;;14.18;46.75
83037;BME280;73029;43.592;1.458;2024-03-23T11:03:39;100757.28;;;14.42;46.35
83037;BME280;73029;43.592;1.458;2024-03-23T11:06:06;100750.03;;;14.50;45.31
83037;BME280;73029;43.592;1.458;2024-03-23T11:08:37;100751.66;;;14.56;45.63
83037;BME280;73029;43.592;1.458;2024-03-23T11:11:20;100748.84;;;14.62;45.37
83037;BME280;73029;43.592;1.458;2024-03-23T11:13:50;100763.56;;;14.76;44.80
83037;BME280;73029;43.592;1.458;2024-03-23T11:16:24;100745.66;;;14.83;43.73
83037;BME280;73029;43.592;1.458;2024-03-23T11:18:52;100747.38;;;14.86;42.74
83037;BME280;73029;43.592;1.458;2024-03-23T11:21:52;100737.56;;;14.88;43.20
83037;BME280;73029;43.592;1.458;2024-03-23T11:24:21;100709.28;;;14.82;41.66
83037;BME280;73029;43.592;1.458;2024-03-23T11:26:48;100730.31;;;14.93;41.87
83037;BME280;73029;43.592;1.458;2024-03-23T11:29:16;100719.63;;;14.94;42.29
83037;BME280;73029;43.592;1.458;2024-03-23T11:31:50;100709.94;;;14.92;41.74
83037;BME280;73029;43.592;1.458;2024-03-23T11:34:19;100710.56;;;15.01;41.65
83037;BME280;73029;43.592;1.458;2024-03-23T11:36:46;100709.47;;;15.08;41.98
83037;BME280;73029;43.592;1.458;2024-03-23T11:39:15;100705.72;;;15.17;41.58
83037;BME280;73029;43.592;1.458;2024-03-23T11:41:49;100697.75;;;15.16;40.73
83037;BME280;73029;43.592;1.458;2024-03-23T11:44:19;100693.31;;;15.16;40.90
83037;BME280;73029;43.592;1.458;2024-03-23T11:46:45;100687.84;;;15.21;41.26
83037;BME280;73029;43.592;1.458;2024-03-23T11:51:47;100675.09;;;15.32;41.29
83037;BME280;73029;43.592;1.458;2024-03-23T11:54:13;100669.59;;;15.38;40.28
83037;BME280;73029;43.592;1.458;2024-03-23T11:56:38;100675.75;;;15.40;40.60
83037;BME280;73029;43.592;1.458;2024-03-23T11:59:04;100661.53;;;15.40;39.91
83037;BME280;73029;43.592;1.458;2024-03-23T12:01:29;100663.97;;;15.49;40.20
83037;BME280;73029;43.592;1.458;2024-03-23T12:03:55;100664.09;;;15.44;39.20
83037;BME280;73029;43.592;1.458;2024-03-23T12:06:20;100669.19;;;15.52;39.14
83037;BME280;73029;43.592;1.458;2024-03-23T12:08:45;100657.47;;;15.57;38.55
83037;BME280;73029;43.592;1.458;2024-03-23T12:11:13;100646.66;;;15.64;38.81
83037;BME280;73029;43.592;1.458;2024-03-23T12:13:40;100628.75;;;15.69;38.53
83037;BME280;73029;43.592;1.458;2024-03-23T12:16:11;100639.91;;;15.81;37.85
83037;BME280;73029;43.592;1.458;2024-03-23T12:18:41;100635.19;;;15.89;37.83
83037;BME280;73029;43.592;1.458;2024-03-23T12:21:07;100616.53;;;15.89;37.64
83037;BME280;73029;43.592;1.458;2024-03-23T12:23:33;100621.47;;;16.02;36.87
83037;BME280;73029;43.592;1.458;2024-03-23T12:25:59;100627.53;;;16.07;36.41
83037;BME280;73029;43.592;1.458;2024-03-23T12:28:25;100626.50;;;16.11;36.08
83037;BME280;73029;43.592;1.458;2024-03-23T12:30:51;100614.97;;;16.10;36.41
83037;BME280;73029;43.592;1.458;2024-03-23T12:33:18;100583.31;;;16.00;36.13
83037;BME280;73029;43.592;1.458;2024-03-23T12:35:44;100609.19;;;16.24;35.49
83037;BME280;73029;43.592;1.458;2024-03-23T12:38:09;100597.06;;;16.14;34.95
83037;BME280;73029;43.592;1.458;2024-03-23T12:40:34;100595.19;;;16.18;35.45
83037;BME280;73029;43.592;1.458;2024-03-23T12:43:00;100597.50;;;16.28;35.53
83037;BME280;73029;43.592;1.458;2024-03-23T12:45:25;100593.09;;;16.27;35.50
83037;BME280;73029;43.592;1.458;2024-03-23T12:47:50;100588.28;;;16.37;34.67
83037;BME280;73029;43.592;1.458;2024-03-23T12:50:19;100584.47;;;16.44;35.56
83037;BME280;73029;43.592;1.458;2024-03-23T12:52:44;100568.19;;;16.52;35.65
83037;BME280;73029;43.592;1.458;2024-03-23T12:55:10;100562.25;;;16.70;36.07
83037;BME280;73029;43.592;1.458;2024-03-23T12:57:36;100568.22;;;16.77;34.87
83037;BME280;73029;43.592;1.458;2024-03-23T13:00:01;100571.97;;;16.73;35.00
83037;BME280;73029;43.592;1.458;2024-03-23T13:02:28;100556.88;;;16.72;35.15
83037;BME280;73029;43.592;1.458;2024-03-23T13:04:54;100557.75;;;16.72;34.73
83037;BME280;73029;43.592;1.458;2024-03-23T13:07:21;100554.06;;;16.75;34.76
83037;BME280;73029;43.592;1.458;2024-03-23T13:09:46;100548.94;;;16.93;35.56
83037;BME280;73029;43.592;1.458;2024-03-23T13:12:12;100543.28;;;17.01;34.89
83037;BME280;73029;43.592;1.458;2024-03-23T13:14:41;100543.19;;;17.04;34.95
83037;BME280;73029;43.592;1.458;2024-03-23T13:17:07;100527.22;;;17.03;34.79
83037;BME280;73029;43.592;1.458;2024-03-23T13:19:33;100522.28;;;17.15;36.15
83037;BME280;73029;43.592;1.458;2024-03-23T13:21:59;100530.88;;;17.23;34.44
83037;BME280;73029;43.592;1.458;2024-03-23T13:24:26;100526.91;;;17.34;34.86
83037;BME280;73029;43.592;1.458;2024-03-23T13:26:53;100517.97;;;17.35;34.85
83037;BME280;73029;43.592;1.458;2024-03-23T13:29:19;100517.81;;;17.38;34.79
83037;BME280;73029;43.592;1.458;2024-03-23T13:31:46;100504.38;;;17.41;34.77
83037;BME280;73029;43.592;1.458;2024-03-23T13:34:12;100518.91;;;17.34;34.61
83037;BME280;73029;43.592;1.458;2024-03-23T13:36:40;100512.88;;;17.29;34.74
83037;BME280;73029;43.592;1.458;2024-03-23T13:39:06;100507.38;;;17.32;34.96
83037;BME280;73029;43.592;1.458;2024-03-23T13:41:43;100503.44;;;17.42;35.08
83037;BME280;73029;43.592;1.458;2024-03-23T13:44:12;100502.41;;;17.44;35.20
83037;BME280;73029;43.592;1.458;2024-03-23T13:46:40;100503.19;;;17.48;35.33
83037;BME280;73029;43.592;1.458;2024-03-23T13:49:06;100481.00;;;17.46;35.10